Time;durP1;ratioP1;P1;durP2;ratioP2;P2;SDS_P1;SDS_P2;PMS_P1;PMS_P2;Temp;Humidity;BMP_temperature;BMP_pressure;BME280_temperature;BME280_humidity;BME280_pressure;Samples;Min_cycle;Max_cycle;Signal;HPM_P1;HPM_P2
2021/10/12 00:00:16;;;;;;;10.17;5.50;;;7.40;99.90;;;8.25;100.00;98959.69;5068616;28;20476;-78
2021/10/12 00:02:45;;;;;;;10.47;5.70;;;7.30;99.90;;;8.27;100.00;98960.34;5067271;28;20546;-78
2021/10/12 00:05:15;;;;;;;14.50;6.17;;;7.30;99.90;;;8.21;100.00;98953.13;5073661;28;20448;-78
2021/10/12 00:07:46;;;;;;;11.73;6.13;;;7.30;99.90;;;8.25;100.00;98954.47;5065983;28;20464;-78
2021/10/12 00:10:15;;;;;;;10.77;5.83;;;7.40;99.90;;;8.21;100.00;98945.31;5069759;28;20858;-78
2021/10/12 00:12:44;;;;;;;12.80;6.27;;;7.40;99.90;;;8.22;100.00;98936.56;5070079;28;20512;-78
2021/10/12 00:15:13;;;;;;;10.33;5.63;;;7.40;99.90;;;8.27;100.00;98942.13;5068933;28;20479;-78
2021/10/12 00:17:41;;;;;;;10.30;6.20;;;7.40;99.90;;;8.28;100.00;98935.97;5064165;28;20467;-78
2021/10/12 00:20:11;;;;;;;9.37;5.90;;;7.40;99.90;;;8.27;100.00;98933.47;5070983;28;20463;-78
2021/10/12 00:22:41;;;;;;;8.97;5.43;;;7.40;99.90;;;8.18;100.00;98930.00;5069291;28;20937;-78
2021/10/12 00:25:10;;;;;;;9.70;4.83;;;7.30;99.90;;;8.07;100.00;98931.03;5068816;28;20517;-78
2021/10/12 00:27:39;;;;;;;11.83;5.70;;;7.10;99.90;;;8.05;100.00;98929.56;5069184;28;20468;-78
2021/10/12 00:30:08;;;;;;;13.13;5.77;;;7.10;99.90;;;8.03;100.00;98931.47;5063398;28;20505;-78
2021/10/12 00:32:37;;;;;;;10.33;5.37;;;7.00;99.90;;;8.02;100.00;98932.44;5065915;28;20484;-78
2021/10/12 00:35:07;;;;;;;9.53;5.80;;;7.10;99.90;;;7.99;100.00;98933.56;5067816;28;20492;-78
2021/10/12 00:37:36;;;;;;;11.70;5.97;;;7.00;99.90;;;8.00;100.00;98932.59;5063450;28;20507;-78
2021/10/12 00:40:08;;;;;;;10.53;5.93;;;7.00;99.90;;;7.96;100.00;98930.44;5061283;28;20967;-78
2021/10/12 00:42:37;;;;;;;11.27;5.53;;;7.00;99.90;;;7.93;100.00;98928.13;5063163;28;20592;-78
2021/10/12 00:45:10;;;;;;;8.53;4.70;;;6.90;99.90;;;7.89;100.00;98929.38;5065309;28;20860;-78
2021/10/12 00:47:40;;;;;;;8.33;5.50;;;6.90;99.90;;;7.89;100.00;98926.78;5073720;28;20467;-78
2021/10/12 00:50:10;;;;;;;16.40;5.37;;;6.90;99.90;;;7.92;100.00;98923.88;5066862;28;20464;-78
2021/10/12 00:52:39;;;;;;;7.83;4.70;;;7.00;99.90;;;7.88;100.00;98925.16;5077307;28;20459;-78
2021/10/12 00:55:09;;;;;;;8.40;5.07;;;6.90;99.90;;;7.75;100.00;98912.50;5068894;28;20468;-78
2021/10/12 00:57:38;;;;;;;9.20;5.97;;;6.80;99.90;;;7.81;100.00;98918.91;5067462;28;20556;-78
2021/10/12 01:00:10;;;;;;;12.10;5.60;;;6.90;99.90;;;7.77;100.00;98907.16;5066597;28;21110;-78
2021/10/12 01:02:39;;;;;;;11.30;5.10;;;6.90;99.90;;;7.77;100.00;98904.56;5063910;28;20912;-78
2021/10/12 01:05:09;;;;;;;7.33;4.80;;;6.80;99.90;;;7.82;100.00;98905.72;5068178;28;20528;-78
2021/10/12 01:07:38;;;;;;;9.80;5.10;;;6.90;99.90;;;7.84;100.00;98905.59;5070054;28;20513;-78
2021/10/12 01:10:12;;;;;;;6.83;4.50;;;6.90;99.90;;;7.80;100.00;98893.84;5067630;28;20535;-78
2021/10/12 01:12:41;;;;;;;7.90;5.13;;;6.90;99.90;;;7.82;100.00;98890.13;5066711;28;20527;-78
2021/10/12 01:15:11;;;;;;;6.37;4.47;;;6.90;99.90;;;7.83;100.00;98885.72;5068268;28;20896;-78
2021/10/12 01:17:40;;;;;;;14.70;5.17;;;7.00;99.90;;;7.86;100.00;98890.63;5061032;28;20460;-78
2021/10/12 01:20:12;;;;;;;10.17;4.50;;;6.90;99.90;;;7.84;100.00;98883.00;5071428;28;20799;-78
2021/10/12 01:22:44;;;;;;;8.73;4.60;;;7.00;99.90;;;7.85;100.00;98894.19;5068274;28;20484;-78
2021/10/12 01:25:15;;;;;;;7.87;4.37;;;6.90;99.90;;;7.90;100.00;98891.97;5070525;28;20447;-78
2021/10/12 01:27:44;;;;;;;12.03;5.33;;;7.00;99.90;;;7.92;100.00;98887.44;5067429;28;20490;-78
2021/10/12 01:30:14;;;;;;;7.90;5.00;;;7.00;99.90;;;7.88;100.00;98879.09;5066933;28;20502;-78
2021/10/12 01:32:45;;;;;;;8.33;4.77;;;7.00;99.90;;;7.93;100.00;98868.25;5065666;28;20459;-78
2021/10/12 01:35:16;;;;;;;9.10;5.10;;;7.10;99.90;;;7.95;100.00;98863.69;5070179;28;20498;-78
2021/10/12 01:37:46;;;;;;;8.90;4.67;;;7.10;99.90;;;7.97;100.00;98851.34;5061803;28;21018;-78
2021/10/12 01:40:17;;;;;;;12.50;5.13;;;7.10;99.90;;;8.00;100.00;98853.66;5068111;28;20834;-78
2021/10/12 01:42:46;;;;;;;9.27;4.80;;;7.10;99.90;;;7.97;100.00;98854.78;5066472;28;20483;-78
2021/10/12 01:45:15;;;;;;;9.40;4.70;;;7.10;99.90;;;7.99;100.00;98839.00;5070844;28;20444;-78
2021/10/12 01:47:44;;;;;;;9.90;4.80;;;7.10;99.90;;;8.00;100.00;98844.06;5077779;28;20858;-78
2021/10/12 01:50:14;;;;;;;8.40;4.60;;;7.10;99.90;;;8.05;100.00;98841.00;5072751;28;20455;-78
2021/10/12 01:52:43;;;;;;;7.50;4.40;;;7.20;99.90;;;8.05;100.00;98839.19;5065410;28;20979;-78
2021/10/12 01:55:13;;;;;;;7.93;5.13;;;7.20;99.90;;;8.03;100.00;98830.72;5070900;28;20487;-78
2021/10/12 01:57:42;;;;;;;8.60;4.40;;;7.20;99.90;;;8.03;100.00;98828.13;5071714;28;20506;-78
2021/10/12 02:00:12;;;;;;;9.57;5.30;;;7.10;99.90;;;8.01;100.00;98818.84;5065878;28;20549;-78
2021/10/12 02:02:41;;;;;;;13.00;5.00;;;7.10;99.90;;;8.04;100.00;98824.56;5075292;28;20523;-78
2021/10/12 02:05:10;;;;;;;7.53;3.90;;;7.10;99.90;;;8.05;100.00;98817.56;5075574;28;20488;-78
2021/10/12 02:07:38;;;;;;;8.60;4.90;;;7.10;99.90;;;8.05;100.00;98804.56;5070886;28;20448;-78
2021/10/12 02:10:08;;;;;;;12.83;5.40;;;7.10;99.90;;;8.07;100.00;98797.38;5066381;28;20457;-78
2021/10/12 02:12:38;;;;;;;12.03;4.70;;;7.20;99.90;;;8.10;100.00;98791.88;5069828;28;20471;-78
2021/10/12 02:15:09;;;;;;;9.53;4.93;;;7.20;99.90;;;8.12;100.00;98792.56;5068133;28;20486;-79
2021/10/12 02:17:38;;;;;;;10.63;5.20;;;7.20;99.90;;;8.11;100.00;98783.09;5068449;28;20518;-78
2021/10/12 02:20:08;;;;;;;9.23;4.60;;;7.20;99.90;;;8.08;100.00;98784.22;5077236;28;20496;-78
2021/10/12 02:22:38;;;;;;;6.70;4.83;;;7.20;99.90;;;8.09;100.00;98772.81;5077376;28;20483;-78
2021/10/12 02:25:10;;;;;;;10.07;4.83;;;7.30;99.90;;;8.07;100.00;98771.34;5076663;28;20455;-78
2021/10/12 02:27:41;;;;;;;5.80;4.10;;;7.20;99.90;;;8.05;100.00;98773.28;5072377;28;20451;-78
2021/10/12 02:30:11;;;;;;;5.93;4.10;;;7.20;99.90;;;8.00;100.00;98775.53;5069390;28;20460;-78
2021/10/12 02:32:40;;;;;;;6.77;4.73;;;7.10;99.90;;;8.01;100.00;98771.97;5067198;28;20480;-78
2021/10/12 02:35:09;;;;;;;8.20;4.97;;;7.20;99.90;;;8.01;100.00;98775.38;5075289;28;20462;-78
2021/10/12 02:37:38;;;;;;;7.73;5.13;;;7.10;99.90;;;8.05;100.00;98776.69;5071951;28;20452;-78
2021/10/12 02:40:09;;;;;;;7.93;4.10;;;7.10;99.90;;;8.09;100.00;98774.59;5069333;28;20487;-78
2021/10/12 02:42:37;;;;;;;5.70;4.40;;;7.20;99.90;;;8.12;100.00;98766.50;5067006;28;20898;-78
2021/10/12 02:45:09;;;;;;;7.40;4.60;;;7.20;99.90;;;8.13;100.00;98765.50;5073030;28;20456;-78
2021/10/12 14:54:35;;;;;;;62.13;29.27;;;12.30;99.90;;;12.91;100.00;98253.78;5049560;28;21039;-82
2021/10/12 14:57:04;;;;;;;8.23;2.30;;;12.20;99.90;;;12.94;100.00;98253.38;5025523;28;20472;-81
2021/10/12 14:59:33;;;;;;;6.40;2.40;;;12.30;99.90;;;12.95;100.00;98257.59;5033334;28;20490;-81
2021/10/12 15:02:02;;;;;;;3.07;2.00;;;12.20;99.90;;;12.94;100.00;98253.38;5030085;28;20455;-81
2021/10/12 15:04:32;;;;;;;13.10;3.40;;;12.30;99.90;;;12.92;100.00;98260.63;5029054;28;20882;-81
2021/10/12 15:07:01;;;;;;;4.30;1.93;;;12.20;99.90;;;12.89;100.00;98271.50;5030584;28;20435;-81
2021/10/12 15:09:32;;;;;;;5.93;2.40;;;12.20;99.90;;;12.88;100.00;98259.38;5029682;28;20513;-81
2021/10/12 15:12:08;;;;;;;9.13;2.50;;;12.10;99.90;;;12.84;100.00;98260.81;5031476;28;20466;-81
2021/10/12 15:14:39;;;;;;;9.13;2.87;;;12.10;99.90;;;12.87;100.00;98263.84;5026643;28;20512;-81
2021/10/12 15:17:08;;;;;;;7.73;2.60;;;12.20;99.90;;;12.82;100.00;98257.56;5031485;28;20462;-81
2021/10/12 15:19:36;;;;;;;16.97;2.53;;;12.10;99.90;;;12.80;100.00;98257.75;5033660;28;20942;-82
2021/10/12 15:22:05;;;;;;;2.90;2.33;;;12.10;99.90;;;12.80;100.00;98262.19;5038641;28;20437;-81
2021/10/12 15:24:33;;;;;;;4.60;2.73;;;12.00;99.90;;;12.76;100.00;98253.09;5028081;28;20497;-81
2021/10/12 15:27:03;;;;;;;10.40;3.43;;;12.00;99.90;;;12.76;100.00;98239.97;5030358;28;20821;-80
2021/10/12 15:29:33;;;;;;;6.60;2.70;;;12.00;99.90;;;12.79;100.00;98244.81;5027643;28;20461;-81
2021/10/12 15:32:03;;;;;;;137.17;63.40;;;12.10;99.90;;;12.71;100.00;98243.16;5033373;28;20994;-81
2021/10/12 15:34:37;;;;;;;7.60;3.60;;;12.00;99.90;;;12.66;100.00;98231.66;5027498;28;20472;-81
2021/10/12 15:37:06;;;;;;;9.20;3.23;;;11.90;99.90;;;12.61;100.00;98235.66;5028240;28;20516;-81
2021/10/12 15:39:35;;;;;;;3.90;2.77;;;11.90;99.90;;;12.57;100.00;98237.06;5025848;28;20485;-80
2021/10/12 15:42:06;;;;;;;7.40;3.13;;;11.80;99.90;;;12.55;100.00;98244.31;5029438;28;20976;-80
2021/10/12 15:44:35;;;;;;;9.77;3.50;;;11.80;99.90;;;12.53;100.00;98242.88;5041200;28;20484;-81
2021/10/12 15:47:04;;;;;;;11.83;3.40;;;11.70;99.90;;;12.51;100.00;98247.53;5025376;28;20795;-80
2021/10/12 15:49:33;;;;;;;11.60;3.53;;;11.70;99.90;;;12.49;100.00;98239.88;5025943;28;20455;-81
2021/10/12 15:52:04;;;;;;;8.97;3.13;;;11.70;99.90;;;12.50;100.00;98243.28;5023248;28;20476;-81
2021/10/12 15:54:33;;;;;;;5.87;4.10;;;11.80;99.90;;;12.46;100.00;98242.84;5030346;28;20864;-80
2021/10/12 15:57:01;;;;;;;5.43;3.40;;;11.70;99.90;;;12.48;100.00;98255.78;5056665;28;21103;-80
2021/10/12 15:59:32;;;;;;;9.13;3.77;;;11.60;99.90;;;12.47;100.00;98252.34;5061625;28;20523;-81
2021/10/12 16:02:00;;;;;;;8.13;3.30;;;11.60;99.90;;;12.39;100.00;98255.13;5070657;28;20461;-81
2021/10/12 16:04:32;;;;;;;10.97;3.67;;;11.50;99.90;;;12.41;100.00;98247.06;5068321;28;20488;-80
2021/10/12 16:07:01;;;;;;;11.40;3.13;;;11.70;99.90;;;12.40;100.00;98251.50;5066583;28;20464;-81
2021/10/12 16:09:30;;;;;;;6.90;3.00;;;11.70;99.90;;;12.38;100.00;98258.75;5067456;28;20452;-81
2021/10/12 16:11:58;;;;;;;5.03;2.80;;;11.70;99.90;;;12.39;100.00;98259.56;5061469;28;20919;-81
2021/10/12 16:14:29;;;;;;;14.33;3.90;;;11.70;99.90;;;12.37;100.00;98264.19;5059793;28;20516;-80
2021/10/12 16:17:06;;;;;;;5.00;2.80;;;11.70;99.90;;;12.24;100.00;98270.16;5071631;28;20463;-80
2021/10/12 16:22:20;;;;;;;4.83;3.53;;;11.30;99.90;;;12.11;100.00;98272.72;5069036;28;20497;-80
2021/10/12 16:24:50;;;;;;;6.87;3.00;;;11.30;99.90;;;12.16;100.00;98282.59;5063788;28;20529;-80
2021/10/12 16:27:19;;;;;;;5.00;2.77;;;11.20;99.90;;;12.14;100.00;98276.75;5067597;28;20509;-80
2021/10/12 16:29:47;;;;;;;5.07;2.13;;;11.30;99.90;;;12.10;100.00;98278.94;5064223;28;20459;-81
2021/10/12 16:32:17;;;;;;;6.47;2.90;;;11.20;99.90;;;12.05;100.00;98270.81;5060673;28;20488;-80
2021/10/12 16:34:47;;;;;;;4.00;2.20;;;11.10;99.90;;;11.96;100.00;98274.59;5078070;28;20459;-80
2021/10/12 16:37:15;;;;;;;5.87;2.40;;;11.10;99.90;;;11.95;100.00;98275.59;5066503;28;20479;-80
2021/10/12 16:39:47;;;;;;;4.70;3.37;;;11.00;99.90;;;11.98;100.00;98278.63;5062839;28;20448;-80
2021/10/12 16:42:15;;;;;;;3.43;2.50;;;11.10;99.90;;;12.00;100.00;98270.59;5063420;28;20792;-81
2021/10/12 16:44:45;;;;;;;11.10;2.27;;;11.20;99.90;;;12.01;100.00;98256.47;5067923;28;20982;-81
2021/10/12 16:47:14;;;;;;;3.93;2.30;;;11.20;99.90;;;12.00;100.00;98263.56;5071932;28;20460;-81
2021/10/12 16:49:43;;;;;;;2.57;2.10;;;11.30;99.90;;;12.00;100.00;98274.03;5067270;28;20463;-81
2021/10/12 16:52:12;;;;;;;3.20;1.70;;;11.20;99.90;;;11.99;100.00;98277.66;5065261;28;20507;-81
2021/10/12 16:54:40;;;;;;;5.07;1.90;;;11.20;99.90;;;11.99;100.00;98284.69;5064868;28;22246;-81
2021/10/12 16:57:10;;;;;;;7.33;2.43;;;11.10;99.90;;;11.93;100.00;98296.75;5067118;28;20469;-82
2021/10/12 16:59:40;;;;;;;4.47;3.03;;;11.10;99.90;;;11.90;100.00;98291.91;5063916;28;20730;-80
2021/10/12 17:02:08;;;;;;;4.53;2.17;;;11.10;99.90;;;11.85;100.00;98294.25;5063569;28;20532;-81
2021/10/12 17:04:42;;;;;;;3.87;2.30;;;11.00;99.90;;;11.82;100.00;98291.22;5059372;28;20550;-80
2021/10/12 17:07:12;;;;;;;1.87;1.70;;;11.00;99.90;;;11.83;100.00;98300.69;5058322;28;20451;-81
2021/10/12 17:09:40;;;;;;;3.67;2.40;;;10.90;99.90;;;11.79;100.00;98308.13;5066532;28;20452;-81
2021/10/12 17:12:09;;;;;;;6.00;2.40;;;11.00;99.90;;;11.76;100.00;98308.50;5065027;28;20465;-81
2021/10/12 17:14:37;;;;;;;3.17;1.63;;;10.90;99.90;;;11.67;100.00;98306.16;5066162;28;21038;-81
2021/10/12 17:17:06;;;;;;;4.70;1.93;;;10.80;99.90;;;11.66;100.00;98310.59;5063643;28;20468;-81
2021/10/12 17:19:34;;;;;;;4.20;2.23;;;10.80;99.90;;;11.65;100.00;98313.38;5061267;28;20513;-80
2021/10/12 17:22:03;;;;;;;3.50;2.00;;;10.70;99.90;;;11.67;100.00;98314.00;5060933;28;20532;-80
2021/10/12 17:24:33;;;;;;;4.27;2.57;;;10.80;99.90;;;11.66;100.00;98317.63;5065554;28;20874;-81
2021/10/12 17:27:02;;;;;;;2.93;1.90;;;10.80;99.90;;;11.63;100.00;98319.63;5060163;28;20962;-80
2021/10/12 17:29:30;;;;;;;2.60;2.13;;;10.70;99.90;;;11.60;100.00;98329.66;5065925;28;20522;-80
2021/10/12 17:31:59;;;;;;;3.93;2.00;;;10.80;99.90;;;11.57;100.00;98333.47;5066083;28;21647;-80
2021/10/12 17:34:27;;;;;;;3.03;1.90;;;10.70;99.90;;;11.46;100.00;98330.50;5069964;28;20513;-80
2021/10/12 17:36:55;;;;;;;8.50;1.90;;;10.70;99.90;;;11.51;100.00;98326.38;5066113;28;20553;-80
2021/10/12 17:39:24;;;;;;;2.70;1.50;;;10.70;99.90;;;11.44;100.00;98337.75;5068572;28;20506;-81
2021/10/12 17:41:54;;;;;;;2.63;1.80;;;10.60;99.90;;;11.51;100.00;98333.41;5059344;28;20464;-81
2021/10/12 17:44:23;;;;;;;3.83;1.67;;;10.70;99.90;;;11.54;100.00;98326.00;5069668;28;20518;-80
2021/10/12 17:46:51;;;;;;;3.27;2.00;;;10.80;99.90;;;11.57;100.00;98330.03;5062238;28;20963;-80
2021/10/12 17:49:20;;;;;;;4.60;1.60;;;10.80;99.90;;;11.58;100.00;98326.44;5070298;28;20956;-81
2021/10/12 17:51:50;;;;;;;3.10;1.97;;;10.80;99.90;;;11.59;100.00;98326.22;5071520;28;20468;-81
2021/10/12 17:54:24;;;;;;;4.40;2.00;;;10.80;99.90;;;11.50;100.00;98327.34;5068476;28;20815;-81
2021/10/12 17:56:55;;;;;;;2.03;1.77;;;10.70;99.90;;;11.49;100.00;98330.97;5065113;28;20476;-81
2021/10/12 17:59:24;;;;;;;18.90;8.40;;;10.70;99.90;;;11.49;100.00;98333.56;5063144;28;20468;-81
2021/10/12 18:01:53;;;;;;;4.83;2.40;;;10.80;99.90;;;11.50;100.00;98348.31;5057596;28;20471;-81
2021/10/12 18:04:22;;;;;;;2.70;2.00;;;10.80;99.90;;;11.51;100.00;98339.47;5066868;28;20482;-80
2021/10/12 18:06:50;;;;;;;4.47;1.50;;;10.80;99.90;;;11.52;100.00;98340.28;5065430;28;20554;-81
2021/10/12 18:09:19;;;;;;;3.70;1.77;;;10.80;99.90;;;11.43;100.00;98346.59;5067323;28;20451;-80
2021/10/12 18:11:48;;;;;;;2.80;1.97;;;10.70;99.90;;;11.44;100.00;98354.28;5068414;28;20452;-81
2021/10/12 18:14:18;;;;;;;3.00;1.97;;;10.60;99.90;;;11.43;100.00;98357.06;5068031;28;20505;-81
2021/10/12 18:16:49;;;;;;;2.27;1.60;;;10.70;99.90;;;11.44;100.00;98354.28;5067123;28;20470;-81
2021/10/12 18:19:19;;;;;;;3.80;1.47;;;10.60;99.90;;;11.38;100.00;98355.03;5066016;28;20475;-80
2021/10/12 18:21:47;;;;;;;3.47;1.70;;;10.60;99.90;;;11.31;100.00;98353.31;5062458;28;20518;-80
2021/10/12 18:24:16;;;;;;;10.03;1.67;;;10.50;99.90;;;11.28;100.00;98362.34;5057854;28;20890;-81
2021/10/12 18:26:47;;;;;;;1.77;1.20;;;10.40;99.90;;;11.31;100.00;98364.63;5067198;28;20492;-81
2021/10/12 18:29:19;;;;;;;1.67;1.20;;;10.50;99.90;;;11.23;100.00;98367.31;5069846;28;20457;-81
2021/10/12 18:31:50;;;;;;;3.27;1.43;;;10.40;99.90;;;11.27;100.00;98367.78;5071843;28;20467;-80
2021/10/12 18:34:20;;;;;;;1.87;1.50;;;10.50;99.90;;;11.30;100.00;98373.44;5071703;28;20948;-81
2021/10/12 18:36:51;;;;;;;1.93;1.77;;;10.60;99.90;;;11.28;100.00;98372.81;5066961;28;20963;-81
2021/10/12 18:39:20;;;;;;;5.27;2.03;;;10.70;99.90;;;11.29;100.00;98378.84;5066007;28;21278;-81
2021/10/12 18:41:50;;;;;;;2.37;1.80;;;10.60;99.90;;;11.30;100.00;98388.34;5062127;28;20870;-81
2021/10/12 18:44:20;;;;;;;11.23;2.10;;;10.70;99.90;;;11.29;100.00;98386.72;5071399;28;20952;-81
2021/10/12 18:47:09;;;;;;;1.73;1.63;;;10.70;99.90;;;11.19;100.00;98387.00;5074154;28;20490;-80
2021/10/12 18:49:37;;;;;;;7.73;1.50;;;10.50;99.90;;;11.17;100.00;98393.41;5071050;28;20963;-81
2021/10/12 18:52:06;;;;;;;2.00;1.80;;;10.50;99.90;;;11.13;100.00;98398.22;5076813;28;20452;-81
2021/10/12 18:54:35;;;;;;;3.13;1.63;;;10.60;99.90;;;11.15;100.00;98404.06;5071816;28;20486;-81
2021/10/12 18:57:03;;;;;;;3.77;3.37;;;10.50;99.90;;;11.15;100.00;98401.44;5070063;28;21079;-80
2021/10/12 18:59:33;;;;;;;2.30;1.67;;;10.50;99.90;;;11.12;100.00;98407.03;5072764;28;20488;-80
2021/10/12 19:02:03;;;;;;;2.20;1.50;;;10.40;99.90;;;10.95;100.00;98416.06;5065555;28;20478;-80
2021/10/12 19:04:33;;;;;;;1.63;1.37;;;10.20;99.90;;;10.99;100.00;98417.34;5069600;28;20544;-80
2021/10/12 19:07:02;;;;;;;1.73;1.53;;;10.40;99.90;;;11.04;100.00;98421.03;5070516;28;20499;-80
2021/10/12 19:09:31;;;;;;;1.77;1.67;;;10.30;99.90;;;10.89;100.00;98419.41;5064452;28;20461;-82
2021/10/12 19:12:00;;;;;;;2.73;2.20;;;10.10;99.90;;;10.89;100.00;98422.03;5071469;28;20940;-80
2021/10/12 19:14:29;;;;;;;3.30;1.97;;;10.10;99.90;;;10.90;100.00;98428.88;5064301;28;20511;-80
2021/10/12 19:16:59;;;;;;;5.93;2.20;;;10.10;99.90;;;10.88;100.00;98430.88;5068439;28;21002;-81
2021/10/12 19:19:29;;;;;;;2.33;1.83;;;10.10;99.90;;;10.90;100.00;98421.03;5060782;28;20490;-81
2021/10/12 19:21:58;;;;;;;2.83;1.57;;;10.10;99.90;;;10.93;100.00;98436.38;5066255;28;20894;-81
2021/10/12 19:24:27;;;;;;;3.20;1.77;;;10.20;99.90;;;10.89;100.00;98445.56;5068059;28;20455;-81
2021/10/12 19:26:56;;;;;;;6.00;2.00;;;10.20;99.90;;;10.88;100.00;98452.63;5065749;28;20566;-81
2021/10/12 19:29:25;;;;;;;1.93;1.37;;;10.20;99.90;;;10.84;100.00;98450.53;5067991;28;20459;-81
2021/10/12 19:31:53;;;;;;;4.97;1.60;;;10.20;99.90;;;10.86;100.00;98448.56;5066963;28;20463;-80
2021/10/12 19:34:23;;;;;;;2.83;1.40;;;10.20;99.90;;;10.79;100.00;98437.19;5071810;28;20449;-81
2021/10/12 19:36:52;;;;;;;8.83;2.10;;;10.10;99.90;;;10.82;100.00;98436.81;5069306;28;20452;-81
2021/10/12 19:39:20;;;;;;;2.10;1.50;;;10.20;99.90;;;10.81;100.00;98438.63;5063926;28;20456;-82
2021/10/12 19:41:49;;;;;;;2.23;1.40;;;10.10;99.90;;;10.74;100.00;98444.72;5067537;28;20822;-81
2021/10/12 19:44:17;;;;;;;2.27;1.33;;;10.10;99.90;;;10.65;100.00;98446.63;5069035;28;20452;-81
2021/10/12 19:46:46;;;;;;;2.77;1.40;;;9.90;99.90;;;10.63;100.00;98448.59;5072615;28;20492;-81
2021/10/12 19:49:14;;;;;;;3.10;1.43;;;9.90;99.90;;;10.50;100.00;98449.19;5072979;28;20455;-81
2021/10/12 19:51:45;;;;;;;1.50;1.40;;;9.60;99.90;;;10.45;100.00;98461.16;5070799;28;20459;-80
2021/10/12 19:54:13;;;;;;;12.77;8.67;;;9.70;99.90;;;10.32;100.00;98461.75;5075089;28;20517;-79
2021/10/12 19:56:43;;;;;;;2.20;1.70;;;9.40;99.90;;;10.37;100.00;98459.44;5067291;28;21541;-80
2021/10/12 19:59:14;;;;;;;4.10;2.00;;;9.50;99.90;;;10.41;100.00;98459.91;5068604;28;20555;-86
2021/10/12 20:04:29;;;;;;;6.57;2.40;;;9.60;99.90;;;10.44;100.00;98465.59;5064844;28;20514;-80
2021/10/12 20:06:59;;;;;;;2.13;1.40;;;9.50;99.90;;;10.44;100.00;98473.44;5063402;28;20492;-79
2021/10/12 20:09:27;;;;;;;2.50;1.50;;;9.60;99.90;;;10.42;100.00;98470.16;5066421;28;20887;-80
2021/10/12 20:11:56;;;;;;;2.17;1.30;;;9.60;99.90;;;10.41;100.00;98473.78;5070806;28;20452;-80
2021/10/12 20:14:24;;;;;;;3.67;1.60;;;9.50;99.90;;;10.39;100.00;98467.91;5069485;28;20981;-80
2021/10/12 20:16:53;;;;;;;3.60;1.57;;;9.60;99.90;;;10.30;100.00;98473.38;5063116;28;21015;-80
2021/10/12 20:22:10;;;;;;;3.97;1.50;;;9.40;99.90;;;10.21;100.00;98488.28;5066259;28;20460;-80
2021/10/12 20:24:38;;;;;;;4.57;1.60;;;9.30;99.90;;;10.11;100.00;98490.28;5068883;28;20453;-80
2021/10/12 20:27:07;;;;;;;2.30;2.10;;;9.30;99.90;;;10.01;100.00;98484.47;5069123;28;20503;-80
2021/10/12 20:29:35;;;;;;;2.70;2.47;;;9.10;99.90;;;10.00;100.00;98499.34;5069673;28;20888;-79
2021/10/12 20:32:05;;;;;;;2.97;1.90;;;9.10;99.90;;;9.96;100.00;98499.88;5067899;28;20452;-80
2021/10/12 20:34:35;;;;;;;3.87;1.90;;;9.00;99.90;;;9.93;100.00;98498.41;5067842;28;21011;-79
2021/10/12 20:37:04;;;;;;;3.17;2.00;;;8.90;99.90;;;9.96;100.00;98502.47;5069254;28;20444;-80
2021/10/12 20:39:35;;;;;;;3.63;2.20;;;9.10;99.90;;;9.97;100.00;98509.31;5066367;28;20530;-79
2021/10/12 20:42:03;;;;;;;4.17;2.50;;;9.20;99.90;;;9.89;100.00;98512.00;5057812;28;20961;-79
2021/10/12 20:44:34;;;;;;;2.90;2.60;;;9.20;99.90;;;9.89;100.00;98510.16;5070407;28;20474;-80
2021/10/12 20:47:03;;;;;;;3.70;2.37;;;9.10;99.90;;;9.86;100.00;98507.91;5067818;28;20492;-80
2021/10/12 20:49:32;;;;;;;9.17;2.73;;;9.10;99.90;;;9.82;100.00;98511.03;5067202;28;20460;-79
2021/10/12 20:52:01;;;;;;;2.90;2.30;;;9.00;99.90;;;9.82;100.00;98511.03;5064697;28;20866;-80
2021/10/12 20:54:30;;;;;;;7.40;2.50;;;9.00;99.90;;;9.75;100.00;98520.53;5067820;28;20441;-79
2021/10/12 20:57:00;;;;;;;9.13;3.50;;;8.90;99.90;;;9.68;100.00;98511.75;5066145;28;20472;-80
2021/10/12 20:59:29;;;;;;;7.30;2.83;;;8.70;99.90;;;9.59;100.00;98514.38;5064832;28;20441;-80
2021/10/12 21:01:57;;;;;;;4.07;2.90;;;8.60;99.90;;;9.56;100.00;98519.13;5066270;28;20456;-80
2021/10/12 21:04:26;;;;;;;9.30;2.77;;;8.70;99.90;;;9.55;100.00;98528.75;5059980;28;20528;-79
2021/10/12 21:06:55;;;;;;;3.40;2.80;;;8.70;99.90;;;9.55;100.00;98531.38;5063271;28;20591;-80
2021/10/12 21:09:23;;;;;;;5.63;2.73;;;8.70;99.90;;;9.53;100.00;98533.34;5066192;28;20488;-79
2021/10/12 21:11:52;;;;;;;4.50;2.83;;;8.70;99.90;;;9.57;100.00;98533.81;5064130;28;20456;-79
2021/10/12 21:14:22;;;;;;;4.20;3.20;;;8.70;99.90;;;9.54;100.00;98529.72;5065144;28;20813;-79
2021/10/12 21:16:55;;;;;;;6.03;2.93;;;8.70;99.90;;;9.53;100.00;98527.31;5063775;28;20459;-80
2021/10/12 21:19:23;;;;;;;7.30;2.93;;;8.60;99.90;;;9.51;100.00;98530.06;5065730;28;20451;-80
2021/10/12 21:21:53;;;;;;;5.27;3.73;;;8.70;99.90;;;9.46;100.00;98531.56;5063274;28;20518;-79
2021/10/12 21:24:21;;;;;;;7.13;3.30;;;8.70;99.90;;;9.38;100.00;98532.41;5062175;28;20917;-79
2021/10/12 21:26:50;;;;;;;6.10;3.27;;;8.50;99.90;;;9.33;100.00;98534.72;5063162;28;20807;-79
2021/10/12 21:29:18;;;;;;;4.20;3.10;;;8.50;99.90;;;9.31;100.00;98536.66;5067639;28;20440;-79
2021/10/12 21:31:48;;;;;;;7.97;2.83;;;8.40;99.90;;;9.27;100.00;98537.97;5061325;28;21041;-79
2021/10/12 21:34:17;;;;;;;4.23;3.10;;;8.40;99.90;;;9.21;100.00;98533.41;5067230;28;20496;-80
2021/10/12 21:36:46;;;;;;;11.77;3.67;;;8.20;99.90;;;9.17;100.00;98542.56;5066617;28;20521;-79
2021/10/12 21:39:14;;;;;;;7.00;3.33;;;8.20;99.90;;;9.06;100.00;98550.72;5061782;28;20480;-80
2021/10/12 21:41:43;;;;;;;5.20;3.80;;;8.00;99.90;;;9.05;100.00;98547.31;5062100;28;20835;-79
2021/10/12 21:44:14;;;;;;;4.40;3.60;;;8.10;99.90;;;9.06;100.00;98550.72;5068301;28;20459;-79
2021/10/12 21:46:43;;;;;;;6.60;3.40;;;8.10;99.90;;;9.03;100.00;98543.22;5064368;28;20805;-79
2021/10/12 21:49:13;;;;;;;5.60;3.70;;;8.00;99.90;;;9.00;100.00;98547.00;5063794;28;20496;-80
2021/10/12 21:51:41;;;;;;;3.90;3.10;;;8.00;99.90;;;8.97;100.00;98547.31;5061921;28;20509;-79
2021/10/12 21:54:12;;;;;;;4.43;3.20;;;8.10;99.90;;;8.94;100.00;98545.03;5069172;28;20469;-79
2021/10/12 21:56:40;;;;;;;9.87;3.90;;;8.00;99.90;;;8.86;100.00;98549.44;5059287;28;20585;-80
2021/10/12 21:59:09;;;;;;;4.43;3.80;;;7.90;99.90;;;8.87;100.00;98557.09;5064431;28;20501;-80
2021/10/12 22:01:38;;;;;;;6.00;3.80;;;8.00;99.90;;;8.74;100.00;98553.34;5062185;28;20536;-80
2021/10/12 22:04:07;;;;;;;5.50;3.87;;;7.90;99.90;;;8.75;100.00;98552.34;5069167;28;20525;-79
2021/10/12 22:06:37;;;;;;;10.50;4.03;;;7.80;99.90;;;8.61;100.00;98555.66;5072022;28;20949;-79
2021/10/12 22:09:06;;;;;;;8.43;4.03;;;7.70;99.90;;;8.61;100.00;98561.66;5071407;28;20488;-79
2021/10/12 22:11:35;;;;;;;7.23;4.37;;;7.60;99.90;;;8.56;100.00;98569.97;5071692;28;20494;-79
2021/10/12 22:14:04;;;;;;;5.77;4.07;;;7.60;99.90;;;8.44;100.00;98571.25;5067874;28;20464;-80
2021/10/12 22:16:33;;;;;;;5.60;4.70;;;7.40;99.90;;;8.48;100.00;98575.16;5071448;28;20960;-80
2021/10/12 22:19:01;;;;;;;5.80;4.40;;;7.50;99.90;;;8.45;100.00;98580.69;5069572;28;20452;-79
2021/10/12 22:21:31;;;;;;;8.50;4.23;;;7.60;99.90;;;8.38;100.00;98577.09;5068337;28;20899;-79
2021/10/12 22:24:02;;;;;;;5.20;3.80;;;7.50;99.90;;;8.27;100.00;98573.94;5067319;28;20460;-79
2021/10/12 22:26:30;;;;;;;8.63;4.40;;;7.30;99.90;;;8.33;100.00;98575.97;5064623;28;20516;-80
2021/10/12 22:28:59;;;;;;;6.13;4.47;;;7.30;99.90;;;8.29;100.00;98585.88;5070295;28;20488;-79
2021/10/12 22:31:28;;;;;;;13.43;5.23;;;7.30;99.90;;;8.19;100.00;98579.94;5068733;28;23390;-79
2021/10/12 22:33:57;;;;;;;6.77;4.80;;;7.20;99.90;;;8.21;100.00;98578.00;5065438;28;20835;-79
2021/10/12 22:36:27;;;;;;;7.60;4.47;;;7.30;99.90;;;8.03;100.00;98582.50;5070810;28;20880;-79
2021/10/12 22:38:55;;;;;;;11.03;5.30;;;7.10;99.90;;;8.07;100.00;98581.22;5066197;28;20525;-80
2021/10/12 22:41:25;;;;;;;6.40;4.90;;;7.20;99.90;;;8.08;100.00;98575.03;5068095;28;20460;-79